Time;durP1;ratioP1;P1;durP2;ratioP2;P2;SDS_P1;SDS_P2;PMS_P1;PMS_P2;Temp;Humidity;BMP_temperature;BMP_pressure;BME280_temperature;BME280_humidity;BME280_pressure;Samples;Min_cycle;Max_cycle;Signal;HPM_P1;HPM_P2
2023/09/23 00:00:19;;;;;;;434.98;388.81;;;;;;;23.59;72.39;99524.66;2500201;27;20506;-77
2023/09/23 00:00:35;;;;;;;465.50;419.25;;;;;;;23.59;72.83;99521.97;351539;28;1452;-77
2023/09/23 00:00:47;;;;;;;467.33;421.02;;;;;;;23.58;72.82;99525.66;351660;28;878;-77
2023/09/23 00:00:57;;;;;;;459.20;413.00;;;;;;;23.58;72.37;99525.66;348344;28;2475;-77
2023/09/23 00:01:07;;;;;;;458.87;412.90;;;;;;;23.57;72.52;99524.81;347031;28;2449;-77
2023/09/23 00:01:18;;;;;;;457.10;410.98;;;;;;;23.57;72.72;99524.81;348358;28;2665;-77
2023/09/23 00:01:28;;;;;;;458.37;412.03;;;;;;;23.58;72.64;99522.97;350087;28;3047;-77
2023/09/23 00:01:39;;;;;;;458.05;411.75;;;;;;;23.58;72.91;99525.66;347198;28;3096;-77
2023/09/23 00:01:50;;;;;;;465.60;419.33;;;;;;;23.58;72.85;99528.31;347404;28;907;-77
2023/09/23 00:02:00;;;;;;;464.50;418.43;;;;;;;23.57;72.75;99524.81;348527;28;964;-77
2023/09/23 00:02:11;;;;;;;462.00;416.08;;;;;;;23.58;72.61;99528.31;348802;28;943;-77
2023/09/23 00:02:22;;;;;;;465.03;418.93;;;;;;;23.57;72.67;99529.31;348930;28;1405;-77
2023/09/23 00:02:33;;;;;;;466.98;420.88;;;;;;;23.57;72.90;99524.81;347443;28;1450;-77
2023/09/23 00:02:43;;;;;;;466.53;420.40;;;;;;;23.58;72.86;99531.00;348285;28;944;-77
2023/09/23 00:02:59;;;;;;;460.42;414.55;;;;;;;23.57;72.36;99524.81;350476;28;1355;-77
2023/09/23 00:03:10;;;;;;;462.40;416.40;;;;;;;23.56;72.84;99523.13;348702;28;875;-76
2023/09/23 00:03:23;;;;;;;464.13;418.07;;;;;;;23.55;72.70;99524.94;350235;28;907;-76
2023/09/23 00:03:33;;;;;;;459.73;413.60;;;;;;;23.57;72.59;99529.31;349152;28;1205;-76
2023/09/23 00:03:44;;;;;;;462.27;415.85;;;;;;;23.57;72.57;99523.97;350079;28;1458;-76
2023/09/23 00:03:54;;;;;;;463.08;416.67;;;;;;;23.57;72.68;99526.63;349843;28;1445;-76
2023/09/23 00:04:05;;;;;;;459.17;413.07;;;;;;;23.57;72.59;99522.13;347433;28;1087;-76
2023/09/23 00:04:16;;;;;;;454.25;408.20;;;;;;;23.57;72.96;99524.81;344564;28;1295;-76
2023/09/23 00:04:29;;;;;;;456.00;409.83;;;;;;;23.55;72.93;99522.28;343962;28;1064;-76
2023/09/23 00:04:39;;;;;;;459.25;413.02;;;;;;;23.57;73.01;99526.63;344654;28;1324;-76
2023/09/23 00:04:50;;;;;;;463.53;417.43;;;;;;;23.55;73.11;99527.63;346048;28;1265;-76
2023/09/23 00:05:03;;;;;;;460.80;414.73;;;;;;;23.57;72.90;99523.97;346169;28;973;-76
2023/09/23 00:05:14;;;;;;;465.45;419.23;;;;;;;23.55;72.98;99519.59;341980;28;1303;-76
2023/09/23 00:05:26;;;;;;;461.23;414.73;;;;;;;23.56;73.32;99525.78;344818;28;1134;-76
2023/09/23 00:05:37;;;;;;;456.08;409.85;;;;;;;23.57;73.18;99521.28;343483;28;885;-76
2023/09/23 00:05:47;;;;;;;462.38;415.95;;;;;;;23.57;72.83;99529.31;347405;28;1260;-76
2023/09/23 00:05:57;;;;;;;464.70;418.43;;;;;;;23.54;73.15;99523.25;344979;28;1234;-76
2023/09/23 00:06:08;;;;;;;471.87;425.33;;;;;;;23.54;73.22;99528.59;340335;28;1245;-76
2023/09/23 00:06:21;;;;;;;463.70;417.40;;;;;;;23.55;73.25;99526.78;343276;28;1364;-76
2023/09/23 00:06:32;;;;;;;466.05;419.90;;;;;;;23.55;73.02;99522.28;343235;28;967;-76
2023/09/23 00:06:42;;;;;;;467.10;420.95;;;;;;;23.55;73.43;99526.78;343861;28;1312;-76
2023/09/23 00:06:52;;;;;;;466.87;420.63;;;;;;;23.54;73.50;99523.25;341794;28;1406;-76
2023/09/23 00:07:04;;;;;;;465.13;418.90;;;;;;;23.57;73.31;99521.28;341949;28;1308;-76
2023/09/23 00:07:17;;;;;;;469.65;423.40;;;;;;;23.55;72.92;99518.75;341277;28;1426;-76
2023/09/23 00:07:28;;;;;;;476.38;429.90;;;;;;;23.56;73.05;99517.78;342516;28;1062;-76
2023/09/23 00:07:40;;;;;;;466.83;420.30;;;;;;;23.57;72.99;99521.28;343005;28;1388;-76
2023/09/23 00:07:52;;;;;;;462.27;415.52;;;;;;;23.57;73.15;99523.97;341806;28;1472;-76
2023/09/23 00:08:03;;;;;;;455.17;408.60;;;;;;;23.59;72.74;99524.66;343407;28;826;-76
2023/09/23 00:08:13;;;;;;;463.05;416.42;;;;;;;23.58;72.96;99522.97;342630;28;1439;-76
2023/09/23 00:08:24;;;;;;;469.33;422.95;;;;;;;23.57;72.95;99518.63;340983;28;1451;-76
2023/09/23 00:08:34;;;;;;;472.67;426.37;;;;;;;23.58;72.71;99520.31;339338;29;1293;-77
2023/09/23 00:08:45;;;;;;;469.75;423.35;;;;;;;23.58;72.66;99523.81;341984;28;1306;-77
2023/09/23 00:08:56;;;;;;;468.00;421.53;;;;;;;23.58;72.84;99514.97;343461;28;1582;-77
2023/09/23 00:09:07;;;;;;;460.88;414.48;;;;;;;23.58;72.73;99521.16;340593;29;1286;-77
2023/09/23 00:09:18;;;;;;;460.23;413.90;;;;;;;23.57;72.88;99524.81;338140;29;1495;-77
2023/09/23 00:09:29;;;;;;;461.77;415.65;;;;;;;23.58;72.62;99520.31;339268;29;1637;-77
2023/09/23 00:09:39;;;;;;;469.73;423.63;;;;;;;23.58;72.95;99520.31;338413;29;1004;-77
2023/09/23 00:09:51;;;;;;;470.75;424.52;;;;;;;23.58;72.53;99522.97;338091;29;814;-77
2023/09/23 00:10:08;;;;;;;470.52;423.92;;;;;;;23.58;72.81;99517.63;335370;29;1082;-77
2023/09/23 00:10:20;;;;;;;464.48;418.02;;;;;;;23.59;72.79;99521.97;329329;29;3007;-77
2023/09/23 00:10:31;;;;;;;468.05;421.83;;;;;;;23.59;72.75;99522.81;329672;29;2718;-76
2023/09/23 00:10:41;;;;;;;467.37;421.00;;;;;;;23.58;72.85;99526.50;330312;29;3280;-76
2023/09/23 00:10:53;;;;;;;470.65;423.75;;;;;;;23.59;72.51;99517.47;328001;30;3102;-76
2023/09/23 00:11:04;;;;;;;463.52;416.95;;;;;;;23.58;73.10;99520.31;323415;30;1554;-77
2023/09/23 00:11:15;;;;;;;464.80;418.33;;;;;;;23.59;72.67;99519.31;321623;30;2063;-77
2023/09/23 00:11:25;;;;;;;466.13;419.92;;;;;;;23.58;72.84;99512.28;322656;30;1823;-77
2023/09/23 00:11:37;;;;;;;466.33;419.70;;;;;;;23.56;72.97;99520.44;322042;30;924;-77
2023/09/23 00:11:47;;;;;;;458.33;411.80;;;;;;;23.55;72.79;99516.94;325581;30;844;-77
2023/09/23 00:12:00;;;;;;;455.73;409.17;;;;;;;23.56;72.89;99517.78;322872;30;1261;-77
2023/09/23 00:12:12;;;;;;;458.20;411.88;;;;;;;23.55;72.78;99524.94;322420;30;2138;-77
2023/09/23 00:12:22;;;;;;;467.67;421.38;;;;;;;23.57;72.88;99519.47;321630;30;2175;-77
2023/09/23 00:12:33;;;;;;;469.33;422.97;;;;;;;23.58;72.93;99517.63;321964;30;1458;-77
2023/09/23 00:12:43;;;;;;;466.13;419.92;;;;;;;23.57;72.94;99514.13;320379;30;2243;-77
2023/09/23 00:12:55;;;;;;;469.40;423.00;;;;;;;23.57;73.21;99513.28;320789;30;2094;-77
2023/09/23 00:13:08;;;;;;;469.95;423.63;;;;;;;23.57;73.06;99518.63;324384;30;919;-77
2023/09/23 00:13:20;;;;;;;474.65;428.17;;;;;;;23.57;73.04;99522.13;318634;31;999;-77
2023/09/23 00:13:32;;;;;;;474.45;428.13;;;;;;;23.57;73.00;99518.63;319987;30;2670;-77
2023/09/23 00:13:42;;;;;;;473.08;426.67;;;;;;;23.58;73.01;99514.97;319305;30;1918;-77
2023/09/23 00:13:53;;;;;;;468.38;422.08;;;;;;;23.59;73.04;99519.31;320997;30;1448;-77
2023/09/23 00:14:05;;;;;;;473.70;427.07;;;;;;;23.59;73.04;99519.31;319694;30;833;-77
2023/09/23 00:14:16;;;;;;;476.80;429.80;;;;;;;23.59;72.94;99521.97;321074;30;1960;-77
2023/09/23 00:14:26;;;;;;;481.33;434.17;;;;;;;23.59;73.02;99521.97;322687;30;2408;-76
2023/09/23 00:14:36;;;;;;;479.35;432.40;;;;;;;23.58;73.01;99515.81;324337;30;1403;-77
2023/09/23 00:14:47;;;;;;;469.53;423.33;;;;;;;23.56;73.25;99515.09;321413;30;2948;-77
2023/09/23 00:14:57;;;;;;;469.20;422.90;;;;;;;23.57;73.22;99516.78;318161;30;3145;-77
2023/09/23 00:15:10;;;;;;;472.70;426.40;;;;;;;23.59;73.12;99524.66;316899;30;3195;-77
2023/09/23 00:15:21;;;;;;;477.40;431.02;;;;;;;23.58;73.16;99514.97;317350;31;1308;-77
2023/09/23 00:15:34;;;;;;;473.03;426.90;;;;;;;23.59;72.87;99521.97;314542;31;3523;-77
2023/09/23 00:15:44;;;;;;;467.02;421.00;;;;;;;23.58;73.01;99521.16;318289;30;3220;-77
2023/09/23 00:15:56;;;;;;;469.57;423.60;;;;;;;23.59;73.05;99517.47;317278;31;2590;-77
2023/09/23 00:16:07;;;;;;;465.65;419.55;;;;;;;23.59;73.10;99521.97;319041;30;1810;-76
2023/09/23 00:16:19;;;;;;;462.35;416.33;;;;;;;23.59;73.12;99524.66;311763;31;929;-76
2023/09/23 00:16:29;;;;;;;463.80;417.77;;;;;;;23.58;73.38;99517.63;308114;31;2795;-76
2023/09/23 00:16:40;;;;;;;463.67;417.70;;;;;;;23.57;73.12;99523.97;306181;31;3407;-76
2023/09/23 00:16:50;;;;;;;466.07;419.67;;;;;;;23.57;73.45;99518.63;309482;31;851;-76
2023/09/23 00:17:03;;;;;;;467.42;420.95;;;;;;;23.56;73.39;99523.13;306319;32;4207;-77
2023/09/23 00:17:14;;;;;;;473.02;426.45;;;;;;;23.56;73.32;99523.13;304317;31;5342;-76
2023/09/23 00:17:24;;;;;;;467.10;420.88;;;;;;;23.56;73.68;99523.13;307585;31;4253;-76
2023/09/23 00:17:36;;;;;;;469.63;423.33;;;;;;;23.55;73.32;99522.28;305174;32;1276;-76
2023/09/23 00:17:46;;;;;;;463.80;417.80;;;;;;;23.54;73.17;99520.59;304593;32;4608;-76
2023/09/23 00:17:57;;;;;;;471.90;425.13;;;;;;;23.55;73.57;99526.78;304748;32;4676;-77
2023/09/23 00:18:08;;;;;;;464.52;417.92;;;;;;;23.55;73.58;99522.28;303426;32;3614;-77
2023/09/23 00:18:18;;;;;;;461.33;414.70;;;;;;;23.55;73.53;99527.63;302027;32;1286;-77
2023/09/23 00:18:29;;;;;;;457.90;412.00;;;;;;;23.56;73.28;99523.13;304594;32;3429;-77
2023/09/23 00:18:39;;;;;;;462.70;416.70;;;;;;;23.57;73.33;99523.97;303686;32;4252;-77
2023/09/23 00:18:51;;;;;;;468.07;421.93;;;;;;;23.57;73.36;99521.28;305287;32;872;-77
2023/09/23 00:19:02;;;;;;;466.17;419.88;;;;;;;23.56;73.41;99517.78;302044;32;5191;-77
2023/09/23 00:19:13;;;;;;;466.48;420.10;;;;;;;23.56;73.57;99523.13;298803;32;6429;-77
2023/09/23 00:19:23;;;;;;;467.70;421.40;;;;;;;23.56;73.24;99525.78;298018;32;6883;-77
2023/09/23 00:19:34;;;;;;;463.10;417.07;;;;;;;23.55;73.61;99522.28;297193;33;2891;-76
2023/09/23 00:19:44;;;;;;;462.90;416.85;;;;;;;23.57;73.43;99523.97;292692;33;6657;-77
2023/09/23 00:19:54;;;;;;;462.23;416.17;;;;;;;23.55;73.21;99522.28;292752;33;6298;-76
2023/09/23 00:20:17;;;;;;;467.42;420.90;;;;;;;23.54;73.36;99520.59;294990;33;1109;-76
2023/09/23 00:20:27;;;;;;;452.10;406.27;;;;;;;23.52;73.37;99521.69;288372;33;4544;-76
2023/09/23 00:20:38;;;;;;;456.48;410.75;;;;;;;23.51;73.46;99526.19;284549;33;5752;-76
2023/09/23 00:20:48;;;;;;;458.30;412.53;;;;;;;23.51;73.48;99523.53;288157;34;1352;-76
2023/09/23 00:20:59;;;;;;;458.10;412.23;;;;;;;23.51;73.09;99523.53;284089;34;7053;-77
2023/09/23 00:21:11;;;;;;;455.10;409.23;;;;;;;23.49;73.24;99522.84;283102;34;8482;-77
2023/09/23 00:21:22;;;;;;;461.20;415.15;;;;;;;23.50;73.32;99524.50;286450;34;1587;-77
2023/09/23 00:21:33;;;;;;;460.50;414.63;;;;;;;23.51;72.90;99520.84;284508;34;877;-77
2023/09/23 00:21:43;;;;;;;453.07;407.50;;;;;;;23.49;73.10;99517.50;280649;34;11283;-77
2023/09/23 00:21:54;;;;;;;452.75;407.05;;;;;;;23.51;73.16;99526.19;278114;34;9546;-77
2023/09/23 00:22:05;;;;;;;448.30;402.63;;;;;;;23.51;73.12;99520.00;280931;35;881;-76
2023/09/23 00:22:16;;;;;;;448.00;402.35;;;;;;;23.47;73.11;99519.47;279399;35;8467;-76
2023/09/23 00:24:14;;;;;;;361.44;320.27;;;;;;;23.48;73.46;99514.97;2502182;27;20936;-76
2023/09/23 00:24:25;;;;;;;447.43;401.67;;;;;;;23.47;73.03;99519.47;352908;28;907;-76
2023/09/23 00:24:35;;;;;;;449.83;404.33;;;;;;;23.48;73.16;99514.97;351552;28;1386;-76
2023/09/23 00:24:46;;;;;;;452.08;406.50;;;;;;;23.47;73.50;99522.13;349126;28;1330;-76
2023/09/23 00:24:58;;;;;;;448.23;402.73;;;;;;;23.46;73.55;99517.78;348768;28;1251;-77
2023/09/23 00:25:09;;;;;;;452.45;406.83;;;;;;;23.48;73.53;99514.97;347340;28;963;-77
2023/09/23 00:25:20;;;;;;;457.55;411.85;;;;;;;23.48;73.18;99520.31;347593;28;931;-77
2023/09/23 00:25:31;;;;;;;458.03;412.27;;;;;;;23.46;73.28;99523.13;346083;28;1125;-77
2023/09/23 00:25:41;;;;;;;450.95;405.35;;;;;;;23.47;73.38;99518.63;347351;28;1251;-77
2023/09/23 00:25:52;;;;;;;454.73;409.13;;;;;;;23.46;73.62;99517.78;349299;28;966;-76
2023/09/23 00:26:03;;;;;;;448.83;403.33;;;;;;;23.47;73.53;99521.28;351726;28;800;-76
2023/09/23 00:26:17;;;;;;;450.98;405.27;;;;;;;23.47;73.23;99519.47;348931;28;1174;-76
2023/09/23 00:26:27;;;;;;;445.80;399.42;;;;;;;23.48;73.21;99520.31;349096;28;894;-77
2023/09/23 00:26:38;;;;;;;446.17;399.50;;;;;;;23.49;73.30;99517.50;348892;28;891;-77
2023/09/23 00:26:48;;;;;;;446.20;399.57;;;;;;;23.48;73.40;99526.50;348848;28;1303;-77
2023/09/23 00:26:59;;;;;;;451.13;404.83;;;;;;;23.46;73.20;99523.13;348857;28;922;-77
2023/09/23 00:27:10;;;;;;;447.63;401.77;;;;;;;23.48;73.24;99522.97;350168;28;1492;-77
2023/09/23 00:27:21;;;;;;;442.13;396.57;;;;;;;23.47;73.40;99523.97;350162;28;942;-77
2023/09/23 00:27:34;;;;;;;434.60;389.42;;;;;;;23.47;73.36;99526.63;348681;28;1470;-77
2023/09/23 00:27:45;;;;;;;438.48;392.73;;;;;;;23.47;73.31;99523.97;347482;28;1389;-76
2023/09/23 00:27:56;;;;;;;445.83;399.77;;;;;;;23.47;73.64;99524.81;344942;28;1292;-76
2023/09/23 00:28:10;;;;;;;447.42;401.50;;;;;;;23.45;73.58;99521.44;344625;28;1171;-76
2023/09/23 00:28:25;;;;;;;447.67;401.95;;;;;;;23.47;73.41;99519.47;348110;28;1288;-76
2023/09/23 00:28:36;;;;;;;443.92;398.45;;;;;;;23.47;73.57;99522.13;351685;28;1028;-76
2023/09/23 00:28:47;;;;;;;446.10;400.60;;;;;;;23.47;73.59;99524.81;344373;28;2673;-76
2023/09/23 00:28:57;;;;;;;457.40;411.48;;;;;;;23.47;73.34;99524.81;342261;28;3094;-76
2023/09/23 00:29:08;;;;;;;458.57;412.33;;;;;;;23.46;73.17;99520.44;342592;28;5154;-76
2023/09/23 00:29:19;;;;;;;453.63;407.10;;;;;;;23.46;73.45;99527.63;343530;28;927;-77
2023/09/23 00:29:30;;;;;;;441.00;394.95;;;;;;;23.46;73.90;99525.78;345821;28;5097;-77
2023/09/23 00:29:40;;;;;;;443.17;397.13;;;;;;;23.45;73.74;99518.78;344517;28;1372;-77
2023/09/23 00:29:51;;;;;;;447.17;401.33;;;;;;;23.46;73.72;99528.47;343290;28;1288;-77
2023/09/23 00:30:05;;;;;;;441.98;396.35;;;;;;;23.45;73.29;99526.78;341998;28;1411;-77
2023/09/23 00:30:17;;;;;;;443.80;398.45;;;;;;;23.45;73.77;99526.78;338106;29;1357;-77
2023/09/23 00:30:28;;;;;;;450.30;404.83;;;;;;;23.45;73.65;99526.78;338072;29;1356;-77
2023/09/23 00:30:38;;;;;;;452.30;406.67;;;;;;;23.44;73.97;99522.44;338809;28;1090;-77
2023/09/23 00:30:50;;;;;;;449.27;403.63;;;;;;;23.44;73.59;99525.09;342126;28;1206;-77
2023/09/23 00:31:05;;;;;;;450.85;404.90;;;;;;;23.45;74.12;99520.59;343442;28;868;-77
2023/09/23 00:31:16;;;;;;;436.08;390.75;;;;;;;23.44;74.06;99518.91;342132;28;1073;-77
2023/09/23 00:31:26;;;;;;;436.10;390.73;;;;;;;23.42;74.21;99527.06;340646;29;1486;-77
2023/09/23 00:31:37;;;;;;;434.23;388.70;;;;;;;23.41;74.21;99525.38;340521;29;1363;-77
2023/09/23 00:31:47;;;;;;;437.07;391.23;;;;;;;23.41;74.10;99520.06;340746;29;870;-77
2023/09/23 00:31:57;;;;;;;439.52;393.77;;;;;;;23.41;73.95;99525.38;340510;29;811;-77
2023/09/23 00:32:08;;;;;;;441.73;396.03;;;;;;;23.41;74.11;99520.06;342510;28;1417;-77
2023/09/23 00:32:19;;;;;;;448.33;402.60;;;;;;;23.41;73.76;99521.88;340669;28;1571;-76
2023/09/23 00:32:34;;;;;;;447.35;401.60;;;;;;;23.41;73.95;99520.06;339420;29;1330;-76
2023/09/23 00:32:44;;;;;;;446.05;400.23;;;;;;;23.42;74.12;99516.38;335536;29;866;-76
2023/09/23 00:32:55;;;;;;;445.23;399.43;;;;;;;23.42;73.89;99518.22;337846;29;1731;-76
2023/09/23 00:33:07;;;;;;;444.63;398.83;;;;;;;23.42;73.88;99523.56;339064;29;1512;-76
2023/09/23 00:33:18;;;;;;;444.33;398.50;;;;;;;23.43;73.63;99517.22;339260;29;1509;-77
2023/09/23 00:33:30;;;;;;;441.58;395.73;;;;;;;23.41;73.65;99520.06;334271;29;890;-77
2023/09/23 00:33:41;;;;;;;445.38;399.60;;;;;;;23.40;73.51;99526.38;336319;29;965;-77
2023/09/23 00:33:52;;;;;;;440.13;394.52;;;;;;;23.40;73.60;99518.38;336064;29;938;-77
2023/09/23 00:34:03;;;;;;;441.88;396.25;;;;;;;23.40;73.53;99518.38;334286;29;838;-77
2023/09/23 00:34:14;;;;;;;436.95;391.25;;;;;;;23.38;73.85;99520.38;333072;29;870;-77
2023/09/23 00:34:25;;;;;;;439.77;393.92;;;;;;;23.38;73.71;99520.38;328915;29;1963;-77
2023/09/23 00:34:37;;;;;;;434.58;388.98;;;;;;;23.39;73.65;99519.38;328616;29;1760;-77
2023/09/23 00:34:48;;;;;;;440.48;394.77;;;;;;;23.40;73.81;99525.53;331606;29;1331;-77
2023/09/23 00:34:59;;;;;;;443.85;398.10;;;;;;;23.40;74.20;99515.69;324249;30;1300;-77
2023/09/23 00:35:12;;;;;;;439.85;394.17;;;;;;;23.40;74.11;99523.72;325621;30;2218;-77
2023/09/23 00:35:23;;;;;;;442.50;396.92;;;;;;;23.39;73.71;99522.06;326083;30;1677;-77
2023/09/23 00:35:36;;;;;;;444.13;398.60;;;;;;;23.39;74.04;99529.22;324244;29;1702;-77
2023/09/23 00:35:47;;;;;;;451.67;405.67;;;;;;;23.39;73.96;99521.22;330412;29;871;-77
2023/09/23 00:35:58;;;;;;;452.10;406.20;;;;;;;23.39;73.94;99526.56;327879;29;1282;-77
2023/09/23 00:36:09;;;;;;;446.00;400.15;;;;;;;23.37;74.02;99524.03;327320;30;1790;-77
2023/09/23 00:36:22;;;;;;;444.40;398.77;;;;;;;23.39;73.81;99526.56;326454;29;2072;-77
2023/09/23 00:36:33;;;;;;;455.20;409.40;;;;;;;23.37;73.92;99528.53;326666;30;1505;-77
2023/09/23 00:36:45;;;;;;;454.17;408.50;;;;;;;23.36;73.99;99527.69;323246;30;918;-77
2023/09/23 00:36:55;;;;;;;455.33;409.45;;;;;;;23.35;73.81;99526.00;321968;30;2118;-77
2023/09/23 00:37:08;;;;;;;454.17;408.42;;;;;;;23.36;74.02;99526.84;319470;30;2558;-77
2023/09/23 00:37:19;;;;;;;454.67;408.95;;;;;;;23.35;74.18;99528.69;317544;30;2807;-77
2023/09/23 00:37:30;;;;;;;455.77;410.00;;;;;;;23.36;74.09;99527.69;316178;31;1421;-77
2023/09/23 00:37:42;;;;;;;450.38;404.50;;;;;;;23.36;74.07;99527.69;314873;31;1845;-77
2023/09/23 00:37:52;;;;;;;448.55;402.58;;;;;;;23.37;74.01;99525.84;317299;30;1396;-77
2023/09/23 00:38:04;;;;;;;449.10;403.17;;;;;;;23.35;74.07;99526.00;317807;30;2691;-77
2023/09/23 00:38:15;;;;;;;458.45;412.23;;;;;;;23.36;74.17;99530.34;312632;31;2776;-76
2023/09/23 00:38:27;;;;;;;455.98;409.63;;;;;;;23.36;74.22;99530.34;316296;31;2435;-76
2023/09/23 00:38:37;;;;;;;460.77;414.35;;;;;;;23.35;74.01;99539.38;319277;30;2686;-76
2023/09/23 00:38:48;;;;;;;459.23;412.90;;;;;;;23.34;74.01;99527.00;314762;31;2182;-77
2023/09/23 00:38:58;;;;;;;455.52;409.35;;;;;;;23.35;74.03;99526.00;311647;31;1122;-77
2023/09/23 00:39:10;;;;;;;453.90;407.67;;;;;;;23.35;73.96;99531.34;312452;31;2950;-77
2023/09/23 00:39:20;;;;;;;447.30;401.20;;;;;;;23.34;74.25;99529.66;310990;31;3384;-76
2023/09/23 00:39:31;;;;;;;446.35;400.48;;;;;;;23.34;74.39;99529.66;308511;32;911;-76
2023/09/23 00:39:42;;;;;;;446.27;400.53;;;;;;;23.34;74.34;99523.47;312584;31;3580;-76
2023/09/23 00:39:53;;;;;;;449.77;404.05;;;;;;;23.33;74.08;99527.97;311648;31;2697;-76
2023/09/23 00:40:04;;;;;;;447.90;402.05;;;;;;;23.33;74.32;99527.13;312391;31;2164;-76
2023/09/23 00:40:17;;;;;;;441.20;395.55;;;;;;;23.31;74.29;99527.28;310617;31;934;-76
2023/09/23 00:40:32;;;;;;;437.35;392.05;;;;;;;23.32;74.37;99536.97;305811;31;2639;-76
2023/09/23 00:40:44;;;;;;;439.52;394.25;;;;;;;23.32;74.24;99536.13;312987;31;3685;-77
2023/09/23 00:40:55;;;;;;;447.67;402.17;;;;;;;23.31;74.42;99532.63;308180;31;4089;-77
2023/09/23 00:41:06;;;;;;;447.33;401.73;;;;;;;23.31;74.56;99535.28;306897;31;4097;-77
2023/09/23 00:41:17;;;;;;;445.65;399.90;;;;;;;23.32;74.41;99528.13;306421;32;891;-76
2023/09/23 00:41:28;;;;;;;437.88;392.15;;;;;;;23.31;74.18;99526.44;307244;32;3991;-76
2023/09/23 00:41:41;;;;;;;450.15;404.17;;;;;;;23.29;74.52;99533.75;307167;31;4520;-76
2023/09/23 00:41:53;;;;;;;458.23;412.20;;;;;;;23.28;74.54;99530.25;307352;32;4802;-76
2023/09/23 00:42:03;;;;;;;452.98;407.17;;;;;;;23.27;74.70;99533.06;303211;32;3445;-76
2023/09/23 00:42:17;;;;;;;438.23;392.67;;;;;;;23.26;74.76;99531.38;303244;32;788;-76
2023/09/23 00:42:27;;;;;;;439.35;393.77;;;;;;;23.25;74.68;99535.88;302211;32;3534;-76
2023/09/23 00:42:38;;;;;;;448.08;402.30;;;;;;;23.25;74.41;99525.19;298483;32;4028;-77
2023/09/23 00:42:49;;;;;;;452.45;406.55;;;;;;;23.25;74.74;99533.19;295050;33;5312;-77
2023/09/23 00:43:05;;;;;;;450.23;404.23;;;;;;;23.25;74.49;99535.88;294899;33;1133;-77
2023/09/23 00:43:17;;;;;;;450.38;404.17;;;;;;;23.24;74.84;99531.53;293851;33;1170;-76
2023/09/23 00:43:28;;;;;;;452.33;406.05;;;;;;;23.25;74.56;99532.38;290944;33;5591;-76
2023/09/23 00:43:38;;;;;;;458.40;411.43;;;;;;;23.25;74.70;99530.53;294004;33;5863;-76
2023/09/23 00:43:50;;;;;;;453.27;406.45;;;;;;;23.24;74.48;99539.53;294904;33;5827;-76
2023/09/23 00:44:01;;;;;;;448.27;401.83;;;;;;;23.25;74.60;99533.19;294082;33;839;-76
2023/09/23 00:44:11;;;;;;;455.03;409.10;;;;;;;23.25;74.76;99530.53;291836;33;7029;-77
2023/09/23 00:44:22;;;;;;;454.63;408.50;;;;;;;23.25;74.97;99537.69;290364;33;5401;-76
2023/09/23 00:44:32;;;;;;;448.10;402.00;;;;;;;23.25;74.73;99535.88;290172;34;1210;-76
2023/09/23 00:44:43;;;;;;;439.85;393.80;;;;;;;23.24;74.50;99536.88;287035;34;5133;-76
2023/09/23 00:44:54;;;;;;;439.85;394.08;;;;;;;23.24;74.70;99539.53;284717;34;6341;-77
2023/09/23 00:45:06;;;;;;;445.73;399.93;;;;;;;23.24;74.84;99531.53;283120;34;7128;-76
2023/09/23 00:45:17;;;;;;;448.05;402.15;;;;;;;23.23;74.68;99527.16;284411;34;1469;-76
2023/09/23 00:45:29;;;;;;;455.40;409.50;;;;;;;23.22;74.86;99530.81;282002;34;8753;-77
2023/09/23 00:45:48;;;;;;;460.15;414.15;;;;;;;23.23;74.70;99537.84;281044;34;8189;-77
2023/09/23 00:45:59;;;;;;;445.76;400.10;;;;;;;23.21;74.49;99534.47;282495;35;1420;-77
2023/09/23 00:47:53;;;;;;;420.98;373.08;;;;;;;23.19;74.44;99531.94;2495789;27;20268;-77
2023/09/23 00:48:08;;;;;;;439.95;394.35;;;;;;;23.19;74.92;99531.09;351603;28;1297;-77
2023/09/23 00:48:18;;;;;;;428.55;383.77;;;;;;;23.20;74.92;99532.78;346065;28;1299;-77
2023/09/23 00:48:31;;;;;;;433.83;388.83;;;;;;;23.20;74.63;99532.78;348612;28;1451;-77
2023/09/23 00:48:44;;;;;;;432.65;387.45;;;;;;;23.18;74.86;99534.75;347428;28;1549;-77
2023/09/23 00:48:55;;;;;;;438.42;392.90;;;;;;;23.18;74.78;99530.25;348721;28;1342;-76
2023/09/23 00:49:08;;;;;;;437.07;391.93;;;;;;;23.17;75.04;99535.75;348567;28;1424;-76
2023/09/23 00:49:19;;;;;;;436.13;391.02;;;;;;;23.17;74.82;99530.41;347274;28;1369;-76
2023/09/23 00:49:32;;;;;;;435.50;390.27;;;;;;;23.17;75.21;99527.75;345966;28;1252;-76
2023/09/23 00:49:46;;;;;;;436.55;390.95;;;;;;;23.17;74.99;99533.09;347619;28;1325;-78
2023/09/23 00:49:56;;;;;;;432.25;386.73;;;;;;;23.16;74.88;99534.91;350186;28;912;-77
2023/09/23 00:50:17;;;;;;;431.00;385.50;;;;;;;23.16;74.86;99531.41;350871;28;1321;-77
2023/09/23 00:50:29;;;;;;;442.33;396.38;;;;;;;23.18;74.92;99529.44;350180;28;856;-77
2023/09/23 00:50:39;;;;;;;440.48;395.08;;;;;;;23.18;74.95;99529.44;347380;28;1317;-77
2023/09/23 00:50:51;;;;;;;436.03;390.63;;;;;;;23.19;74.78;99525.78;348557;28;1515;-77
2023/09/23 00:51:01;;;;;;;437.98;392.60;;;;;;;23.19;75.15;99523.09;350345;28;848;-77
2023/09/23 00:51:12;;;;;;;440.02;394.70;;;;;;;23.19;74.68;99526.59;348877;28;1282;-77
2023/09/23 00:51:23;;;;;;;442.15;396.98;;;;;;;23.20;74.55;99532.78;350211;28;1305;-77
2023/09/23 00:51:33;;;;;;;435.63;390.63;;;;;;;23.21;74.79;99529.13;351436;28;1241;-77
2023/09/23 00:51:43;;;;;;;433.98;388.98;;;;;;;23.22;74.64;99528.16;353010;28;1053;-77
2023/09/23 00:51:54;;;;;;;442.10;396.47;;;;;;;23.22;74.96;99525.47;348819;28;927;-77
2023/09/23 00:52:06;;;;;;;455.35;409.02;;;;;;;23.21;74.89;99526.47;347147;28;872;-77
2023/09/23 00:52:16;;;;;;;460.38;413.83;;;;;;;23.22;74.72;99525.47;348055;28;884;-77
2023/09/23 00:52:27;;;;;;;446.88;401.20;;;;;;;23.23;75.06;99528.00;345847;28;1753;-77
2023/09/23 00:52:37;;;;;;;438.45;393.17;;;;;;;23.23;74.91;99521.81;346067;28;1309;-77
2023/09/23 00:52:52;;;;;;;435.77;390.50;;;;;;;23.22;74.67;99520.13;346030;28;1299;-77
2023/09/23 00:53:04;;;;;;;438.63;393.17;;;;;;;23.20;74.74;99522.13;346236;28;963;-77
2023/09/23 00:53:14;;;;;;;444.65;398.98;;;;;;;23.18;75.31;99521.41;344709;28;958;-77
2023/09/23 00:53:25;;;;;;;444.30;398.60;;;;;;;23.17;75.11;99517.91;344738;28;856;-76
2023/09/23 00:53:36;;;;;;;449.75;403.73;;;;;;;23.16;75.46;99520.72;344652;28;1236;-77
2023/09/23 00:53:47;;;;;;;453.77;407.37;;;;;;;23.17;75.73;99517.06;345963;28;1131;-77
2023/09/23 00:53:58;;;;;;;464.90;418.40;;;;;;;23.16;75.15;99518.03;343125;28;1034;-77
2023/09/23 00:54:09;;;;;;;463.48;417.23;;;;;;;23.16;75.41;99524.22;341963;28;1710;-77
2023/09/23 00:54:21;;;;;;;458.45;412.42;;;;;;;23.16;75.40;99523.38;342070;28;1364;-77
2023/09/23 00:54:41;;;;;;;455.08;409.00;;;;;;;23.15;75.16;99519.88;341449;28;1464;-77
2023/09/23 00:54:52;;;;;;;446.92;401.27;;;;;;;23.14;75.22;99522.69;339360;29;810;-76
2023/09/23 00:55:04;;;;;;;435.95;390.67;;;;;;;23.13;75.39;99521.00;340424;29;837;-77
2023/09/23 00:55:16;;;;;;;439.02;393.63;;;;;;;23.13;75.66;99515.66;341596;28;1927;-77
2023/09/23 00:55:26;;;;;;;443.60;398.08;;;;;;;23.13;75.19;99521.00;340638;28;948;-77
2023/09/23 00:55:43;;;;;;;443.52;398.15;;;;;;;23.13;75.68;99523.69;336756;29;1249;-76
2023/09/23 00:55:55;;;;;;;432.60;387.20;;;;;;;23.12;75.68;99520.16;335306;29;1358;-77
2023/09/23 00:56:05;;;;;;;429.90;384.33;;;;;;;23.12;75.72;99522.00;341647;28;1506;-77
2023/09/23 00:56:19;;;;;;;428.98;383.60;;;;;;;23.13;75.14;99515.66;339194;29;1176;-77
2023/09/23 00:56:31;;;;;;;437.67;392.20;;;;;;;23.14;75.41;99523.53;333025;29;2826;-77